sensor_id;sensor_type;location;lat;lon;timestamp;temperature;humidity
75022;SHT31;63583;49.976;20.182;2023-09-19T00:02:17;18.34;78.68
75022;SHT31;63583;49.976;20.182;2023-09-19T00:04:43;18.35;78.59
75022;SHT31;63583;49.976;20.182;2023-09-19T00:07:09;18.37;78.66
75022;SHT31;63583;49.976;20.182;2023-09-19T00:09:35;18.40;78.25
75022;SHT31;63583;49.976;20.182;2023-09-19T00:12:07;18.38;78.40
75022;SHT31;63583;49.976;20.182;2023-09-19T00:14:35;18.38;78.55
75022;SHT31;63583;49.976;20.182;2023-09-19T00:17:02;18.42;78.37
75022;SHT31;63583;49.976;20.182;2023-09-19T00:19:36;18.45;78.25
75022;SHT31;63583;49.976;20.182;2023-09-19T00:22:08;18.49;77.96
75022;SHT31;63583;49.976;20.182;2023-09-19T00:24:33;18.55;77.97
75022;SHT31;63583;49.976;20.182;2023-09-19T00:26:59;18.55;78.06
75022;SHT31;63583;49.976;20.182;2023-09-19T00:29:25;18.71;78.23
75022;SHT31;63583;49.976;20.182;2023-09-19T00:31:55;18.68;79.92
75022;SHT31;63583;49.976;20.182;2023-09-19T00:34:22;18.59;81.43
75022;SHT31;63583;49.976;20.182;2023-09-19T00:36:48;18.44;83.24
75022;SHT31;63583;49.976;20.182;2023-09-19T00:39:14;18.24;84.81
75022;SHT31;63583;49.976;20.182;2023-09-19T00:41:39;18.07;85.59
75022;SHT31;63583;49.976;20.182;2023-09-19T00:44:06;17.97;86.40
75022;SHT31;63583;49.976;20.182;2023-09-19T00:46:32;17.96;86.82
75022;SHT31;63583;49.976;20.182;2023-09-19T00:48:58;17.89;86.96
75022;SHT31;63583;49.976;20.182;2023-09-19T00:51:25;17.80;87.54
75022;SHT31;63583;49.976;20.182;2023-09-19T00:53:52;17.79;87.33
75022;SHT31;63583;49.976;20.182;2023-09-19T00:56:18;17.82;87.70
75022;SHT31;63583;49.976;20.182;2023-09-19T00:58:45;17.85;87.87
75022;SHT31;63583;49.976;20.182;2023-09-19T01:01:12;17.83;87.98
75022;SHT31;63583;49.976;20.182;2023-09-19T01:03:41;17.69;89.17
75022;SHT31;63583;49.976;20.182;2023-09-19T01:06:06;17.59;89.63
75022;SHT31;63583;49.976;20.182;2023-09-19T01:08:34;17.55;89.71
75022;SHT31;63583;49.976;20.182;2023-09-19T01:11:15;17.52;91.67
75022;SHT31;63583;49.976;20.182;2023-09-19T01:13:55;17.53;91.07
75022;SHT31;63583;49.976;20.182;2023-09-19T01:19:19;17.52;90.37
75022;SHT31;63583;49.976;20.182;2023-09-19T01:22:13;17.50;90.74
75022;SHT31;63583;49.976;20.182;2023-09-19T01:25:19;17.46;90.66
75022;SHT31;63583;49.976;20.182;2023-09-19T01:28:15;17.41;91.40
75022;SHT31;63583;49.976;20.182;2023-09-19T01:30:46;17.41;91.69
75022;SHT31;63583;49.976;20.182;2023-09-19T01:33:12;17.34;91.37
75022;SHT31;63583;49.976;20.182;2023-09-19T01:35:40;17.34;91.46
75022;SHT31;63583;49.976;20.182;2023-09-19T01:38:06;17.41;90.93
75022;SHT31;63583;49.976;20.182;2023-09-19T01:40:41;17.43;91.03
75022;SHT31;63583;49.976;20.182;2023-09-19T01:43:35;17.45;90.74
75022;SHT31;63583;49.976;20.182;2023-09-19T01:46:12;17.42;90.94
75022;SHT31;63583;49.976;20.182;2023-09-19T01:51:33;17.49;91.11
75022;SHT31;63583;49.976;20.182;2023-09-19T01:54:06;17.49;90.96
75022;SHT31;63583;49.976;20.182;2023-09-19T01:56:40;17.50;90.85
75022;SHT31;63583;49.976;20.182;2023-09-19T01:59:13;17.49;90.81
75022;SHT31;63583;49.976;20.182;2023-09-19T02:01:42;17.48;90.73
75022;SHT31;63583;49.976;20.182;2023-09-19T02:04:10;17.43;90.79
75022;SHT31;63583;49.976;20.182;2023-09-19T02:06:40;17.42;91.12
75022;SHT31;63583;49.976;20.182;2023-09-19T02:09:06;17.36;91.47
75022;SHT31;63583;49.976;20.182;2023-09-19T02:11:32;17.36;91.37
75022;SHT31;63583;49.976;20.182;2023-09-19T02:13:58;17.38;91.04
75022;SHT31;63583;49.976;20.182;2023-09-19T02:16:25;17.35;91.27
75022;SHT31;63583;49.976;20.182;2023-09-19T02:18:51;17.31;91.19
75022;SHT31;63583;49.976;20.182;2023-09-19T02:21:17;17.29;91.48
75022;SHT31;63583;49.976;20.182;2023-09-19T02:23:45;17.32;91.32
75022;SHT31;63583;49.976;20.182;2023-09-19T02:26:13;17.36;91.15
75022;SHT31;63583;49.976;20.182;2023-09-19T02:28:39;17.29;91.52
75022;SHT31;63583;49.976;20.182;2023-09-19T02:31:05;17.24;91.74
75022;SHT31;63583;49.976;20.182;2023-09-19T02:33:31;17.32;91.39
75022;SHT31;63583;49.976;20.182;2023-09-19T02:35:59;17.31;91.34
75022;SHT31;63583;49.976;20.182;2023-09-19T02:38:25;17.32;91.44
75022;SHT31;63583;49.976;20.182;2023-09-19T02:40:52;17.36;91.52
75022;SHT31;63583;49.976;20.182;2023-09-19T02:43:18;17.35;91.31
75022;SHT31;63583;49.976;20.182;2023-09-19T02:45:45;17.35;91.05
75022;SHT31;63583;49.976;20.182;2023-09-19T02:48:20;17.31;91.57
75022;SHT31;63583;49.976;20.182;2023-09-19T02:50:49;17.31;91.74
75022;SHT31;63583;49.976;20.182;2023-09-19T02:53:15;17.32;91.85
75022;SHT31;63583;49.976;20.182;2023-09-19T02:55:41;17.31;92.09
75022;SHT31;63583;49.976;20.182;2023-09-19T02:58:08;17.31;92.09
75022;SHT31;63583;49.976;20.182;2023-09-19T03:00:34;17.25;92.16
75022;SHT31;63583;49.976;20.182;2023-09-19T03:03:01;17.22;92.65
75022;SHT31;63583;49.976;20.182;2023-09-19T03:05:27;17.24;92.63
75022;SHT31;63583;49.976;20.182;2023-09-19T03:07:56;17.29;92.57
75022;SHT31;63583;49.976;20.182;2023-09-19T03:10:22;17.32;92.37
75022;SHT31;63583;49.976;20.182;2023-09-19T03:12:50;17.35;92.40
75022;SHT31;63583;49.976;20.182;2023-09-19T03:15:16;17.31;92.78
75022;SHT31;63583;49.976;20.182;2023-09-19T03:17:44;17.34;92.72
75022;SHT31;63583;49.976;20.182;2023-09-19T03:20:11;17.32;92.74
75022;SHT31;63583;49.976;20.182;2023-09-19T03:22:39;17.35;92.72
75022;SHT31;63583;49.976;20.182;2023-09-19T03:25:07;17.38;92.51
75022;SHT31;63583;49.976;20.182;2023-09-19T03:27:34;17.39;92.37
75022;SHT31;63583;49.976;20.182;2023-09-19T03:30:01;17.39;92.37
75022;SHT31;63583;49.976;20.182;2023-09-19T03:32:29;17.38;92.56
75022;SHT31;63583;49.976;20.182;2023-09-19T03:34:55;17.39;92.61
75022;SHT31;63583;49.976;20.182;2023-09-19T03:37:21;17.43;92.17
75022;SHT31;63583;49.976;20.182;2023-09-19T03:39:47;17.50;91.73
75022;SHT31;63583;49.976;20.182;2023-09-19T03:42:12;17.55;91.49
75022;SHT31;63583;49.976;20.182;2023-09-19T03:44:38;17.58;91.17
75022;SHT31;63583;49.976;20.182;2023-09-19T03:47:04;17.49;91.80
75022;SHT31;63583;49.976;20.182;2023-09-19T03:49:30;17.42;92.27
75022;SHT31;63583;49.976;20.182;2023-09-19T03:51:56;17.50;91.92
75022;SHT31;63583;49.976;20.182;2023-09-19T03:54:22;17.55;91.74
75022;SHT31;63583;49.976;20.182;2023-09-19T03:56:48;17.52;91.88
75022;SHT31;63583;49.976;20.182;2023-09-19T03:59:14;17.41;92.14
75022;SHT31;63583;49.976;20.182;2023-09-19T04:01:39;17.35;92.21
75022;SHT31;63583;49.976;20.182;2023-09-19T04:04:07;17.35;92.12
75022;SHT31;63583;49.976;20.182;2023-09-19T04:06:35;17.35;92.02
75022;SHT31;63583;49.976;20.182;2023-09-19T04:09:02;17.35;92.12
75022;SHT31;63583;49.976;20.182;2023-09-19T04:11:32;17.35;92.20
75022;SHT31;63583;49.976;20.182;2023-09-19T04:13:59;17.38;92.03
75022;SHT31;63583;49.976;20.182;2023-09-19T04:16:24;17.38;92.14
75022;SHT31;63583;49.976;20.182;2023-09-19T04:18:50;17.48;91.79
75022;SHT31;63583;49.976;20.182;2023-09-19T04:21:16;17.53;91.47
75022;SHT31;63583;49.976;20.182;2023-09-19T04:23:42;17.52;91.59
75022;SHT31;63583;49.976;20.182;2023-09-19T04:26:08;17.43;91.97
75022;SHT31;63583;49.976;20.182;2023-09-19T04:28:34;17.48;91.84
75022;SHT31;63583;49.976;20.182;2023-09-19T04:31:03;17.49;91.67
75022;SHT31;63583;49.976;20.182;2023-09-19T04:33:28;17.41;92.10
75022;SHT31;63583;49.976;20.182;2023-09-19T04:35:54;17.43;92.10
75022;SHT31;63583;49.976;20.182;2023-09-19T04:38:20;17.43;92.14
75022;SHT31;63583;49.976;20.182;2023-09-19T04:40:47;17.15;93.47
75022;SHT31;63583;49.976;20.182;2023-09-19T04:43:13;17.25;93.02
75022;SHT31;63583;49.976;20.182;2023-09-19T04:45:39;17.11;93.80
75022;SHT31;63583;49.976;20.182;2023-09-19T04:48:08;17.12;93.87
75022;SHT31;63583;49.976;20.182;2023-09-19T04:50:36;17.20;93.53
75022;SHT31;63583;49.976;20.182;2023-09-19T04:53:02;17.28;93.02
75022;SHT31;63583;49.976;20.182;2023-09-19T04:55:28;17.24;93.37
75022;SHT31;63583;49.976;20.182;2023-09-19T04:57:56;17.27;93.60
75022;SHT31;63583;49.976;20.182;2023-09-19T05:00:22;17.25;93.69
75022;SHT31;63583;49.976;20.182;2023-09-19T05:02:57;17.31;93.56
75022;SHT31;63583;49.976;20.182;2023-09-19T05:05:23;17.25;93.82
75022;SHT31;63583;49.976;20.182;2023-09-19T05:07:50;17.34;93.56
75022;SHT31;63583;49.976;20.182;2023-09-19T05:10:18;17.29;93.39
75022;SHT31;63583;49.976;20.182;2023-09-19T05:12:44;17.28;93.48
75022;SHT31;63583;49.976;20.182;2023-09-19T05:15:13;17.25;93.69
75022;SHT31;63583;49.976;20.182;2023-09-19T05:17:40;17.18;94.26
75022;SHT31;63583;49.976;20.182;2023-09-19T05:20:07;17.17;94.06
75022;SHT31;63583;49.976;20.182;2023-09-19T05:22:42;17.18;94.39
75022;SHT31;63583;49.976;20.182;2023-09-19T05:25:12;17.21;94.30
75022;SHT31;63583;49.976;20.182;2023-09-19T05:27:43;17.25;94.01
75022;SHT31;63583;49.976;20.182;2023-09-19T05:30:09;17.29;93.86
75022;SHT31;63583;49.976;20.182;2023-09-19T05:32:35;17.34;93.82
75022;SHT31;63583;49.976;20.182;2023-09-19T05:35:00;17.39;93.64
75022;SHT31;63583;49.976;20.182;2023-09-19T05:37:26;17.41;93.90
75022;SHT31;63583;49.976;20.182;2023-09-19T05:39:52;17.42;93.97
75022;SHT31;63583;49.976;20.182;2023-09-19T05:42:21;17.50;93.39
75022;SHT31;63583;49.976;20.182;2023-09-19T05:44:46;17.63;92.88
75022;SHT31;63583;49.976;20.182;2023-09-19T05:47:12;17.45;93.73
75022;SHT31;63583;49.976;20.182;2023-09-19T05:49:38;17.43;93.92
75022;SHT31;63583;49.976;20.182;2023-09-19T05:52:07;17.41;94.00
75022;SHT31;63583;49.976;20.182;2023-09-19T05:54:33;17.38;94.40
75022;SHT31;63583;49.976;20.182;2023-09-19T05:57:00;17.38;94.48
75022;SHT31;63583;49.976;20.182;2023-09-19T05:59:27;17.28;94.88
75022;SHT31;63583;49.976;20.182;2023-09-19T06:01:53;17.27;95.01
75022;SHT31;63583;49.976;20.182;2023-09-19T06:04:19;17.22;95.31
75022;SHT31;63583;49.976;20.182;2023-09-19T06:06:45;17.22;95.57
75022;SHT31;63583;49.976;20.182;2023-09-19T06:09:12;17.22;95.60
75022;SHT31;63583;49.976;20.182;2023-09-19T06:11:38;17.25;95.69
75022;SHT31;63583;49.976;20.182;2023-09-19T06:14:03;17.17;96.03
75022;SHT31;63583;49.976;20.182;2023-09-19T06:16:30;17.22;95.90
75022;SHT31;63583;49.976;20.182;2023-09-19T06:18:57;17.22;95.79
75022;SHT31;63583;49.976;20.182;2023-09-19T06:21:26;17.24;96.01
75022;SHT31;63583;49.976;20.182;2023-09-19T06:23:53;17.15;96.30
75022;SHT31;63583;49.976;20.182;2023-09-19T06:26:19;17.21;96.24
75022;SHT31;63583;49.976;20.182;2023-09-19T06:28:44;17.25;96.22
75022;SHT31;63583;49.976;20.182;2023-09-19T06:31:11;17.32;96.13
75022;SHT31;63583;49.976;20.182;2023-09-19T06:33:37;17.29;96.33
75022;SHT31;63583;49.976;20.182;2023-09-19T06:36:06;17.25;96.37
75022;SHT31;63583;49.976;20.182;2023-09-19T06:38:32;17.29;96.24
75022;SHT31;63583;49.976;20.182;2023-09-19T06:41:02;17.31;96.41
75022;SHT31;63583;49.976;20.182;2023-09-19T06:43:31;17.31;96.54
75022;SHT31;63583;49.976;20.182;2023-09-19T06:46:00;17.32;96.54
75022;SHT31;63583;49.976;20.182;2023-09-19T06:48:26;17.31;96.63
75022;SHT31;63583;49.976;20.182;2023-09-19T06:50:56;17.32;96.54
75022;SHT31;63583;49.976;20.182;2023-09-19T06:53:24;17.34;96.58
75022;SHT31;63583;49.976;20.182;2023-09-19T06:55:51;17.41;96.43
75022;SHT31;63583;49.976;20.182;2023-09-19T06:58:16;17.43;96.40
75022;SHT31;63583;49.976;20.182;2023-09-19T07:00:43;17.49;96.41
75022;SHT31;63583;49.976;20.182;2023-09-19T07:03:10;17.43;96.51
75022;SHT31;63583;49.976;20.182;2023-09-19T07:05:39;17.39;96.69
75022;SHT31;63583;49.976;20.182;2023-09-19T07:08:06;17.35;96.50
75022;SHT31;63583;49.976;20.182;2023-09-19T07:10:33;17.39;96.88
75022;SHT31;63583;49.976;20.182;2023-09-19T07:13:00;17.48;96.67
75022;SHT31;63583;49.976;20.182;2023-09-19T07:15:27;17.53;96.54
75022;SHT31;63583;49.976;20.182;2023-09-19T07:17:54;17.50;96.55
75022;SHT31;63583;49.976;20.182;2023-09-19T07:20:20;17.50;96.71
75022;SHT31;63583;49.976;20.182;2023-09-19T07:22:46;17.50;96.74
75022;SHT31;63583;49.976;20.182;2023-09-19T07:25:13;17.53;96.70
75022;SHT31;63583;49.976;20.182;2023-09-19T07:27:43;17.56;96.46
75022;SHT31;63583;49.976;20.182;2023-09-19T07:30:10;17.59;96.30
75022;SHT31;63583;49.976;20.182;2023-09-19T07:32:37;17.62;96.17
75022;SHT31;63583;49.976;20.182;2023-09-19T07:35:05;17.66;96.44
75022;SHT31;63583;49.976;20.182;2023-09-19T07:37:33;17.70;96.60
75022;SHT31;63583;49.976;20.182;2023-09-19T07:40:00;17.79;96.32
75022;SHT31;63583;49.976;20.182;2023-09-19T07:42:26;17.77;96.55
75022;SHT31;63583;49.976;20.182;2023-09-19T07:44:52;17.82;96.33
75022;SHT31;63583;49.976;20.182;2023-09-19T07:47:20;17.85;96.13
75022;SHT31;63583;49.976;20.182;2023-09-19T07:49:47;17.83;96.23
75022;SHT31;63583;49.976;20.182;2023-09-19T07:52:13;17.87;96.14
75022;SHT31;63583;49.976;20.182;2023-09-19T07:54:39;17.89;96.13
75022;SHT31;63583;49.976;20.182;2023-09-19T07:57:06;17.94;96.07
75022;SHT31;63583;49.976;20.182;2023-09-19T07:59:32;17.93;96.17
75022;SHT31;63583;49.976;20.182;2023-09-19T08:01:58;18.00;96.36
75022;SHT31;63583;49.976;20.182;2023-09-19T08:04:24;18.01;96.40
75022;SHT31;63583;49.976;20.182;2023-09-19T08:06:51;18.01;96.33
75022;SHT31;63583;49.976;20.182;2023-09-19T08:09:17;18.15;95.44
75022;SHT31;63583;49.976;20.182;2023-09-19T08:11:47;18.23;95.28
75022;SHT31;63583;49.976;20.182;2023-09-19T08:14:13;18.08;95.47
75022;SHT31;63583;49.976;20.182;2023-09-19T08:16:40;18.17;94.60
75022;SHT31;63583;49.976;20.182;2023-09-19T08:19:06;18.15;94.27
75022;SHT31;63583;49.976;20.182;2023-09-19T08:21:31;18.13;94.13
75022;SHT31;63583;49.976;20.182;2023-09-19T08:23:57;18.10;94.59
75022;SHT31;63583;49.976;20.182;2023-09-19T08:26:23;18.04;94.09
75022;SHT31;63583;49.976;20.182;2023-09-19T08:28:51;17.91;94.09
75022;SHT31;63583;49.976;20.182;2023-09-19T08:31:16;17.80;94.63
75022;SHT31;63583;49.976;20.182;2023-09-19T08:33:43;17.70;95.04
75022;SHT31;63583;49.976;20.182;2023-09-19T08:36:12;17.61;95.16
75022;SHT31;63583;49.976;20.182;2023-09-19T08:38:40;17.62;95.26
75022;SHT31;63583;49.976;20.182;2023-09-19T08:41:07;17.50;95.36
75022;SHT31;63583;49.976;20.182;2023-09-19T08:43:34;17.52;95.42
75022;SHT31;63583;49.976;20.182;2023-09-19T08:48:34;17.31;95.79
75022;SHT31;63583;49.976;20.182;2023-09-19T08:51:02;17.25;95.96
75022;SHT31;63583;49.976;20.182;2023-09-19T08:53:42;17.28;96.23
75022;SHT31;63583;49.976;20.182;2023-09-19T08:56:16;17.32;96.11
75022;SHT31;63583;49.976;20.182;2023-09-19T08:58:46;17.21;96.38
75022;SHT31;63583;49.976;20.182;2023-09-19T09:01:15;17.20;96.41
75022;SHT31;63583;49.976;20.182;2023-09-19T09:03:43;17.12;97.00
75022;SHT31;63583;49.976;20.182;2023-09-19T09:06:14;17.15;96.97
75022;SHT31;63583;49.976;20.182;2023-09-19T09:08:42;17.11;96.83
75022;SHT31;63583;49.976;20.182;2023-09-19T09:11:08;17.14;96.62
75022;SHT31;63583;49.976;20.182;2023-09-19T09:13:36;17.14;96.82
75022;SHT31;63583;49.976;20.182;2023-09-19T09:16:02;17.12;96.97
75022;SHT31;63583;49.976;20.182;2023-09-19T09:18:29;17.03;97.64
75022;SHT31;63583;49.976;20.182;2023-09-19T09:20:57;17.15;97.33
75022;SHT31;63583;49.976;20.182;2023-09-19T09:23:23;17.22;97.28
75022;SHT31;63583;49.976;20.182;2023-09-19T09:25:53;17.25;97.01
75022;SHT31;63583;49.976;20.182;2023-09-19T09:28:21;17.28;96.95
75022;SHT31;63583;49.976;20.182;2023-09-19T09:30:47;17.27;96.59
75022;SHT31;63583;49.976;20.182;2023-09-19T09:33:14;17.32;96.37
75022;SHT31;63583;49.976;20.182;2023-09-19T09:35:58;17.28;96.44
75022;SHT31;63583;49.976;20.182;2023-09-19T09:38:27;17.29;96.63
75022;SHT31;63583;49.976;20.182;2023-09-19T09:40:56;17.21;96.57
75022;SHT31;63583;49.976;20.182;2023-09-19T09:43:45;17.28;96.67
75022;SHT31;63583;49.976;20.182;2023-09-19T09:46:16;17.28;96.84
75022;SHT31;63583;49.976;20.182;2023-09-19T09:49:04;17.31;96.68
75022;SHT31;63583;49.976;20.182;2023-09-19T09:51:49;17.29;96.17
75022;SHT31;63583;49.976;20.182;2023-09-19T09:54:26;17.36;96.55
75022;SHT31;63583;49.976;20.182;2023-09-19T09:57:00;17.34;96.54
75022;SHT31;63583;49.976;20.182;2023-09-19T09:59:49;17.46;95.89
75022;SHT31;63583;49.976;20.182;2023-09-19T10:02:21;17.39;96.37
75022;SHT31;63583;49.976;20.182;2023-09-19T10:04:54;17.39;96.24
75022;SHT31;63583;49.976;20.182;2023-09-19T10:07:40;17.41;96.17
75022;SHT31;63583;49.976;20.182;2023-09-19T10:10:08;17.46;96.08
75022;SHT31;63583;49.976;20.182;2023-09-19T10:12:54;17.36;96.22
75022;SHT31;63583;49.976;20.182;2023-09-19T10:15:24;17.43;96.24
75022;SHT31;63583;49.976;20.182;2023-09-19T10:17:52;17.48;95.69
75022;SHT31;63583;49.976;20.182;2023-09-19T10:20:22;17.49;95.25
75022;SHT31;63583;49.976;20.182;2023-09-19T10:23:10;17.39;95.72
75022;SHT31;63583;49.976;20.182;2023-09-19T10:25:40;17.39;96.11
75022;SHT31;63583;49.976;20.182;2023-09-19T10:28:07;17.50;95.62
75022;SHT31;63583;49.976;20.182;2023-09-19T10:30:37;17.48;95.68
75022;SHT31;63583;49.976;20.182;2023-09-19T10:33:14;17.42;95.62
75022;SHT31;63583;49.976;20.182;2023-09-19T10:35:45;17.45;95.86
75022;SHT31;63583;49.976;20.182;2023-09-19T10:38:11;17.42;96.07
75022;SHT31;63583;49.976;20.182;2023-09-19T10:40:38;17.39;96.10
75022;SHT31;63583;49.976;20.182;2023-09-19T10:43:16;17.36;96.17
75022;SHT31;63583;49.976;20.182;2023-09-19T10:45:48;17.35;95.79
75022;SHT31;63583;49.976;20.182;2023-09-19T10:48:16;17.35;96.14
75022;SHT31;63583;49.976;20.182;2023-09-19T10:53:29;17.36;96.01
75022;SHT31;63583;49.976;20.182;2023-09-19T10:55:59;17.50;96.24
75022;SHT31;63583;49.976;20.182;2023-09-19T10:58:31;17.58;95.91
75022;SHT31;63583;49.976;20.182;2023-09-19T11:01:05;17.65;95.73
75022;SHT31;63583;49.976;20.182;2023-09-19T11:03:33;17.62;95.67
75022;SHT31;63583;49.976;20.182;2023-09-19T11:06:06;17.73;95.42
75022;SHT31;63583;49.976;20.182;2023-09-19T11:09:01;17.73;95.04
75022;SHT31;63583;49.976;20.182;2023-09-19T11:30:48;17.69;94.87
75022;SHT31;63583;49.976;20.182;2023-09-19T11:33:27;17.56;95.10
75022;SHT31;63583;49.976;20.182;2023-09-19T11:36:05;17.62;95.23
75022;SHT31;63583;49.976;20.182;2023-09-19T11:49:17;17.62;95.01
75022;SHT31;63583;49.976;20.182;2023-09-19T11:51:46;17.66;95.16
75022;SHT31;63583;49.976;20.182;2023-09-19T11:54:14;17.62;95.48
75022;SHT31;63583;49.976;20.182;2023-09-19T11:56:54;17.59;94.96
75022;SHT31;63583;49.976;20.182;2023-09-19T11:59:21;17.62;95.29
75022;SHT31;63583;49.976;20.182;2023-09-19T12:02:00;17.61;95.23
75022;SHT31;63583;49.976;20.182;2023-09-19T12:07:01;17.58;95.54
75022;SHT31;63583;49.976;20.182;2023-09-19T12:09:27;17.56;95.05
75022;SHT31;63583;49.976;20.182;2023-09-19T12:11:53;17.53;95.15
75022;SHT31;63583;49.976;20.182;2023-09-19T12:14:23;17.55;95.12
75022;SHT31;63583;49.976;20.182;2023-09-19T12:16:55;17.48;95.36
75022;SHT31;63583;49.976;20.182;2023-09-19T12:19:22;17.48;95.37
75022;SHT31;63583;49.976;20.182;2023-09-19T12:22:01;17.45;95.52
75022;SHT31;63583;49.976;20.182;2023-09-19T12:24:31;17.52;95.70
75022;SHT31;63583;49.976;20.182;2023-09-19T12:27:01;17.48;95.20
75022;SHT31;63583;49.976;20.182;2023-09-19T12:29:27;17.45;94.89
75022;SHT31;63583;49.976;20.182;2023-09-19T12:31:55;17.48;95.43
75022;SHT31;63583;49.976;20.182;2023-09-19T12:34:25;17.48;95.62
75022;SHT31;63583;49.976;20.182;2023-09-19T12:39:43;17.50;95.53
75022;SHT31;63583;49.976;20.182;2023-09-19T12:42:14;17.55;95.57
75022;SHT31;63583;49.976;20.182;2023-09-19T12:44:44;17.56;95.07
75022;SHT31;63583;49.976;20.182;2023-09-19T12:47:11;17.48;94.69
75022;SHT31;63583;49.976;20.182;2023-09-19T12:50:10;17.53;94.99
75022;SHT31;63583;49.976;20.182;2023-09-19T12:52:45;17.48;94.92
75022;SHT31;63583;49.976;20.182;2023-09-19T12:55:25;17.55;95.46
75022;SHT31;63583;49.976;20.182;2023-09-19T12:58:00;17.65;94.85
75022;SHT31;63583;49.976;20.182;2023-09-19T13:00:42;17.69;94.51
75022;SHT31;63583;49.976;20.182;2023-09-19T13:05:51;17.76;94.68
75022;SHT31;63583;49.976;20.182;2023-09-19T13:08:27;17.86;94.61
75022;SHT31;63583;49.976;20.182;2023-09-19T13:11:13;17.83;94.48
75022;SHT31;63583;49.976;20.182;2023-09-19T13:13:49;17.96;94.62
75022;SHT31;63583;49.976;20.182;2023-09-19T13:16:16;18.00;94.63
75022;SHT31;63583;49.976;20.182;2023-09-19T13:18:47;18.11;94.26
75022;SHT31;63583;49.976;20.182;2023-09-19T13:21:14;18.06;93.84
75022;SHT31;63583;49.976;20.182;2023-09-19T13:23:54;18.14;94.45
75022;SHT31;63583;49.976;20.182;2023-09-19T13:26:25;18.03;94.73
75022;SHT31;63583;49.976;20.182;2023-09-19T13:28:51;18.13;93.79
75022;SHT31;63583;49.976;20.182;2023-09-19T13:31:17;18.07;93.91
75022;SHT31;63583;49.976;20.182;2023-09-19T13:33:44;18.11;94.14
75022;SHT31;63583;49.976;20.182;2023-09-19T13:36:11;18.15;93.84
75022;SHT31;63583;49.976;20.182;2023-09-19T13:38:39;18.17;93.42
75022;SHT31;63583;49.976;20.182;2023-09-19T13:41:07;18.13;93.11
75022;SHT31;63583;49.976;20.182;2023-09-19T13:43:33;18.13;93.56
75022;SHT31;63583;49.976;20.182;2023-09-19T13:45:59;18.11;93.86
75022;SHT31;63583;49.976;20.182;2023-09-19T13:48:24;18.08;93.47
75022;SHT31;63583;49.976;20.182;2023-09-19T13:50:50;18.06;93.84
75022;SHT31;63583;49.976;20.182;2023-09-19T13:53:16;18.11;93.89
75022;SHT31;63583;49.976;20.182;2023-09-19T13:55:43;18.15;93.78
75022;SHT31;63583;49.976;20.182;2023-09-19T13:58:08;18.11;93.54
75022;SHT31;63583;49.976;20.182;2023-09-19T14:00:36;18.15;93.63
75022;SHT31;63583;49.976;20.182;2023-09-19T14:03:04;18.06;94.18
75022;SHT31;63583;49.976;20.182;2023-09-19T14:05:31;18.10;93.44
75022;SHT31;63583;49.976;20.182;2023-09-19T14:07:57;18.17;93.73
75022;SHT31;63583;49.976;20.182;2023-09-19T14:10:25;18.21;93.31
75022;SHT31;63583;49.976;20.182;2023-09-19T14:12:53;18.31;93.08
75022;SHT31;63583;49.976;20.182;2023-09-19T14:15:19;18.40;92.25
75022;SHT31;63583;49.976;20.182;2023-09-19T14:17:44;18.37;92.69
75022;SHT31;63583;49.976;20.182;2023-09-19T14:20:11;18.44;93.04
75022;SHT31;63583;49.976;20.182;2023-09-19T14:22:37;18.41;92.81
75022;SHT31;63583;49.976;20.182;2023-09-19T14:25:04;18.49;92.89
75022;SHT31;63583;49.976;20.182;2023-09-19T14:27:30;18.76;92.31
75022;SHT31;63583;49.976;20.182;2023-09-19T14:29:56;18.81;92.36
75022;SHT31;63583;49.976;20.182;2023-09-19T14:32:23;18.95;92.30
75022;SHT31;63583;49.976;20.182;2023-09-19T14:34:49;19.07;91.01
75022;SHT31;63583;49.976;20.182;2023-09-19T14:37:15;19.13;91.02
75022;SHT31;63583;49.976;20.182;2023-09-19T14:39:42;19.24;90.71
75022;SHT31;63583;49.976;20.182;2023-09-19T14:42:10;19.23;89.84
75022;SHT31;63583;49.976;20.182;2023-09-19T14:44:36;19.21;90.92
75022;SHT31;63583;49.976;20.182;2023-09-19T14:47:05;19.26;89.93
75022;SHT31;63583;49.976;20.182;2023-09-19T14:49:34;19.26;90.60
75022;SHT31;63583;49.976;20.182;2023-09-19T14:52:00;19.31;90.05
75022;SHT31;63583;49.976;20.182;2023-09-19T14:54:30;19.19;90.01
75022;SHT31;63583;49.976;20.182;2023-09-19T14:56:56;19.14;90.46
75022;SHT31;63583;49.976;20.182;2023-09-19T14:59:31;19.11;90.70
75022;SHT31;63583;49.976;20.182;2023-09-19T15:01:57;19.07;90.98
75022;SHT31;63583;49.976;20.182;2023-09-19T15:04:24;19.06;90.43
75022;SHT31;63583;49.976;20.182;2023-09-19T15:06:49;19.10;90.07
75022;SHT31;63583;49.976;20.182;2023-09-19T15:09:22;19.10;90.47
75022;SHT31;63583;49.976;20.182;2023-09-19T15:11:52;19.11;90.20
75022;SHT31;63583;49.976;20.182;2023-09-19T15:14:19;19.11;89.71
75022;SHT31;63583;49.976;20.182;2023-09-19T15:16:44;19.11;89.76
75022;SHT31;63583;49.976;20.182;2023-09-19T15:19:10;19.11;89.58
75022;SHT31;63583;49.976;20.182;2023-09-19T15:21:36;19.10;89.55
75022;SHT31;63583;49.976;20.182;2023-09-19T15:24:03;19.21;89.27
75022;SHT31;63583;49.976;20.182;2023-09-19T15:26:30;19.19;89.03
75022;SHT31;63583;49.976;20.182;2023-09-19T15:28:56;19.27;88.93
75022;SHT31;63583;49.976;20.182;2023-09-19T15:31:22;19.31;89.04
75022;SHT31;63583;49.976;20.182;2023-09-19T15:33:48;19.27;89.16
75022;SHT31;63583;49.976;20.182;2023-09-19T15:36:15;19.30;88.40
75022;SHT31;63583;49.976;20.182;2023-09-19T15:41:22;19.23;89.12
75022;SHT31;63583;49.976;20.182;2023-09-19T15:43:48;19.10;90.12
75022;SHT31;63583;49.976;20.182;2023-09-19T15:46:13;19.04;89.79
75022;SHT31;63583;49.976;20.182;2023-09-19T15:48:41;19.10;90.01
75022;SHT31;63583;49.976;20.182;2023-09-19T15:51:07;19.03;89.52
75022;SHT31;63583;49.976;20.182;2023-09-19T15:53:52;18.99;89.31
75022;SHT31;63583;49.976;20.182;2023-09-19T15:56:20;18.93;90.17
75022;SHT31;63583;49.976;20.182;2023-09-19T15:58:51;18.89;89.91
75022;SHT31;63583;49.976;20.182;2023-09-19T16:01:17;18.76;90.37
75022;SHT31;63583;49.976;20.182;2023-09-19T16:03:46;18.73;90.76
75022;SHT31;63583;49.976;20.182;2023-09-19T16:06:16;18.75;90.55
75022;SHT31;63583;49.976;20.182;2023-09-19T16:08:47;18.63;90.64
75022;SHT31;63583;49.976;20.182;2023-09-19T16:11:13;18.65;90.56
75022;SHT31;63583;49.976;20.182;2023-09-19T16:13:40;18.55;90.85
75022;SHT31;63583;49.976;20.182;2023-09-19T16:16:10;18.54;91.13
75022;SHT31;63583;49.976;20.182;2023-09-19T16:18:39;18.47;91.47